Time;durP1;ratioP1;P1;durP2;ratioP2;P2;SDS_P1;SDS_P2;PMS_P1;PMS_P2;Temp;Humidity;BMP_temperature;BMP_pressure;BME280_temperature;BME280_humidity;BME280_pressure;Samples;Min_cycle;Max_cycle;Signal;HPM_P1;HPM_P2
2022/07/02 00:01:21;;;;;;;0.95;0.55;;;;;;;;;;4925952;29;20028;-60
2022/07/02 00:03:50;;;;;;;2.05;0.50;;;;;;;;;;4921979;29;20028;-60
2022/07/02 00:06:19;;;;;;;1.67;0.47;;;;;;;;;;4936054;29;20024;-60
2022/07/02 00:08:46;;;;;;;1.42;0.50;;;;;;;;;;4922599;29;20396;-60
2022/07/02 00:11:14;;;;;;;4.45;0.60;;;;;;;;;;4925770;29;20027;-60
2022/07/02 00:13:41;;;;;;;1.67;0.75;;;;;;;;;;4925769;29;20036;-60
2022/07/02 00:16:10;;;;;;;1.15;0.60;;;;;;;;;;4925460;29;20042;-59
2022/07/02 00:18:36;;;;;;;2.40;0.80;;;;;;;;;;4922878;29;20036;-60
2022/07/02 00:21:03;;;;;;;2.58;0.73;;;;;;;;;;4921285;29;20099;-60
2022/07/02 00:23:30;;;;;;;1.48;0.65;;;;;;;;;;4924587;29;20020;-60
2022/07/02 00:25:58;;;;;;;1.13;0.47;;;;;;;;;;4925499;29;20028;-60
2022/07/02 00:28:25;;;;;;;2.30;0.80;;;;;;;;;;4925497;29;20486;-60
2022/07/02 00:30:52;;;;;;;1.52;0.60;;;;;;;;;;4918817;29;20052;-60
2022/07/02 00:33:18;;;;;;;0.88;0.52;;;;;;;;;;4935689;29;20031;-60
2022/07/02 00:35:46;;;;;;;1.90;0.73;;;;;;;;;;4932211;29;20481;-60
2022/07/02 00:38:12;;;;;;;3.03;0.73;;;;;;;;;;4925822;29;20036;-60
2022/07/02 00:40:39;;;;;;;1.65;0.60;;;;;;;;;;4925338;29;20022;-60
2022/07/02 00:43:07;;;;;;;1.88;0.60;;;;;;;;;;4922168;29;20492;-60
2022/07/02 00:45:34;;;;;;;2.70;0.60;;;;;;;;;;4935910;29;20531;-60
2022/07/02 00:48:01;;;;;;;2.25;0.65;;;;;;;;;;4920901;29;20030;-59
2022/07/02 00:50:28;;;;;;;3.40;0.63;;;;;;;;;;4932021;29;20094;-60
2022/07/02 00:52:54;;;;;;;1.35;0.60;;;;;;;;;;4927872;29;20500;-59
2022/07/02 00:55:20;;;;;;;1.55;0.60;;;;;;;;;;4924823;29;20519;-60
2022/07/02 00:57:47;;;;;;;3.30;0.80;;;;;;;;;;4924111;29;20036;-60
2022/07/02 01:00:17;;;;;;;4.65;0.82;;;;;;;;;;4920389;29;20035;-60
2022/07/02 01:02:44;;;;;;;1.27;0.60;;;;;;;;;;4922111;29;20032;-60
2022/07/02 01:05:13;;;;;;;1.98;0.60;;;;;;;;;;4924771;29;20438;-60
2022/07/02 01:07:41;;;;;;;0.70;0.70;;;;;;;;;;4924363;29;20498;-60
2022/07/02 01:10:17;;;;;;;2.80;0.70;;;;;;;;;;4924796;29;20030;-60
2022/07/02 01:12:45;;;;;;;2.53;0.60;;;;;;;;;;4923031;29;20027;-60
2022/07/02 01:15:11;;;;;;;1.25;0.60;;;;;;;;;;4920035;29;20028;-60
2022/07/02 01:17:38;;;;;;;1.85;0.70;;;;;;;;;;4922599;29;20416;-60
2022/07/02 01:20:04;;;;;;;0.57;0.55;;;;;;;;;;4924650;29;20024;-59
2022/07/02 01:22:35;;;;;;;2.47;0.70;;;;;;;;;;4923958;29;20034;-60
2022/07/02 01:25:01;;;;;;;2.13;0.60;;;;;;;;;;4934648;29;20034;-60
2022/07/02 01:27:28;;;;;;;2.20;0.73;;;;;;;;;;4920659;29;20513;-60
2022/07/02 01:29:54;;;;;;;1.95;0.80;;;;;;;;;;4920437;29;20366;-60
2022/07/02 01:32:21;;;;;;;1.02;0.60;;;;;;;;;;4930724;29;20039;-60
2022/07/02 01:34:49;;;;;;;2.53;0.63;;;;;;;;;;4928161;29;20024;-60
2022/07/02 01:37:16;;;;;;;1.23;0.60;;;;;;;;;;4924018;29;20040;-60
2022/07/02 01:39:43;;;;;;;1.20;0.60;;;;;;;;;;4919968;29;20036;-60
2022/07/02 01:42:10;;;;;;;0.70;0.70;;;;;;;;;;4919759;29;20058;-59
2022/07/02 01:44:36;;;;;;;2.63;0.57;;;;;;;;;;4920599;29;20038;-60
2022/07/02 01:47:04;;;;;;;3.13;0.65;;;;;;;;;;4924124;29;20036;-60
2022/07/02 01:49:31;;;;;;;1.50;0.80;;;;;;;;;;4923942;29;20034;-60
2022/07/02 01:51:57;;;;;;;2.30;0.70;;;;;;;;;;4924274;29;20034;-60
2022/07/02 01:54:24;;;;;;;4.10;0.80;;;;;;;;;;4919737;29;20368;-60
2022/07/02 01:56:50;;;;;;;1.25;0.70;;;;;;;;;;4919223;29;20044;-60
2022/07/02 01:59:18;;;;;;;3.95;0.70;;;;;;;;;;4923970;29;20083;-60
2022/07/02 02:01:45;;;;;;;1.92;0.88;;;;;;;;;;4925742;29;20036;-60
2022/07/02 02:04:11;;;;;;;0.98;0.70;;;;;;;;;;4932468;29;20016;-60
2022/07/02 02:06:37;;;;;;;2.90;0.70;;;;;;;;;;4921179;29;20056;-60
2022/07/02 02:09:04;;;;;;;1.60;0.50;;;;;;;;;;4919576;29;20499;-59
2022/07/02 02:11:31;;;;;;;1.98;0.70;;;;;;;;;;4922803;29;20046;-60
2022/07/02 02:13:58;;;;;;;1.60;0.60;;;;;;;;;;4923741;29;20034;-60
2022/07/02 02:16:25;;;;;;;3.00;0.60;;;;;;;;;;4923561;29;20056;-59
2022/07/02 02:18:52;;;;;;;1.20;0.60;;;;;;;;;;4922937;29;20037;-60
2022/07/02 02:21:19;;;;;;;2.83;0.77;;;;;;;;;;4919205;29;20035;-60
2022/07/02 02:23:45;;;;;;;2.17;0.70;;;;;;;;;;4920955;29;20038;-60
2022/07/02 02:26:11;;;;;;;1.48;0.60;;;;;;;;;;4923554;29;20145;-59
2022/07/02 02:28:38;;;;;;;1.67;0.65;;;;;;;;;;4924025;29;20038;-60
2022/07/02 02:31:04;;;;;;;1.23;0.70;;;;;;;;;;4917983;29;20392;-60
2022/07/02 02:33:30;;;;;;;1.10;0.70;;;;;;;;;;4933771;29;20515;-60
2022/07/02 02:35:57;;;;;;;4.22;0.80;;;;;;;;;;4934701;29;20039;-60
2022/07/02 02:38:24;;;;;;;3.63;0.68;;;;;;;;;;4927387;29;20044;-59
2022/07/02 02:40:50;;;;;;;1.17;0.60;;;;;;;;;;4930122;29;20390;-60
2022/07/02 02:43:17;;;;;;;2.88;0.80;;;;;;;;;;4935689;29;20038;-60
2022/07/02 02:45:43;;;;;;;2.45;0.70;;;;;;;;;;4925416;29;20023;-60
2022/07/02 02:48:09;;;;;;;2.83;0.68;;;;;;;;;;4922701;29;20038;-60
2022/07/02 02:50:36;;;;;;;2.03;0.68;;;;;;;;;;4925710;29;20028;-60
2022/07/02 02:53:02;;;;;;;2.17;0.73;;;;;;;;;;4927226;29;20036;-60
2022/07/02 02:55:29;;;;;;;2.83;0.85;;;;;;;;;;4926972;29;20019;-60
2022/07/02 02:57:55;;;;;;;1.63;0.70;;;;;;;;;;4920735;29;20031;-60
2022/07/02 03:00:22;;;;;;;2.67;0.80;;;;;;;;;;4938024;29;20028;-60
2022/07/02 03:02:48;;;;;;;3.88;0.70;;;;;;;;;;4933716;29;20085;-60
2022/07/02 03:05:14;;;;;;;1.73;0.63;;;;;;;;;;4927559;29;20020;-60
2022/07/02 03:07:41;;;;;;;1.13;0.70;;;;;;;;;;4926850;29;20035;-59
2022/07/02 03:10:08;;;;;;;2.05;0.70;;;;;;;;;;4927017;29;20038;-60
2022/07/02 03:12:34;;;;;;;1.42;0.60;;;;;;;;;;4923790;29;20020;-59
2022/07/02 03:15:00;;;;;;;0.70;0.60;;;;;;;;;;4922357;29;20032;-60
2022/07/02 03:17:26;;;;;;;7.10;0.90;;;;;;;;;;4925723;29;20060;-59
2022/07/02 03:19:53;;;;;;;1.17;0.75;;;;;;;;;;4929880;29;20027;-60
2022/07/02 03:22:19;;;;;;;3.60;0.80;;;;;;;;;;4934591;29;20020;-59
2022/07/02 03:24:45;;;;;;;3.72;0.57;;;;;;;;;;4925111;29;20074;-60
2022/07/02 03:27:12;;;;;;;2.70;0.50;;;;;;;;;;4922210;29;20477;-60
2022/07/02 03:29:38;;;;;;;2.22;0.60;;;;;;;;;;4924813;29;20425;-60
2022/07/02 03:32:04;;;;;;;2.85;0.70;;;;;;;;;;4926103;29;20020;-60
2022/07/02 03:34:31;;;;;;;2.22;0.55;;;;;;;;;;4926635;29;20025;-59
2022/07/02 03:36:57;;;;;;;2.53;0.82;;;;;;;;;;4926316;29;20416;-60
2022/07/02 03:39:23;;;;;;;1.90;0.70;;;;;;;;;;4921934;29;20034;-60
2022/07/02 03:41:50;;;;;;;4.22;1.13;;;;;;;;;;4933742;29;20031;-60
2022/07/02 03:44:17;;;;;;;4.00;0.80;;;;;;;;;;4926696;29;20035;-60
2022/07/02 03:46:43;;;;;;;2.40;0.63;;;;;;;;;;4924708;29;20031;-60
2022/07/02 03:49:09;;;;;;;1.90;0.80;;;;;;;;;;4932856;29;20024;-60
2022/07/02 03:51:36;;;;;;;1.20;0.77;;;;;;;;;;4937248;29;20028;-59
2022/07/02 03:54:02;;;;;;;4.65;0.93;;;;;;;;;;4921730;29;20039;-59
2022/07/02 03:56:28;;;;;;;2.42;0.65;;;;;;;;;;4932443;29;20405;-60
2022/07/02 03:58:55;;;;;;;3.45;0.80;;;;;;;;;;4929612;29;20024;-60
2022/07/02 04:01:21;;;;;;;2.53;0.80;;;;;;;;;;4925797;29;20405;-60
2022/07/02 04:03:47;;;;;;;3.13;0.70;;;;;;;;;;4924963;29;20038;-60
2022/07/02 04:06:14;;;;;;;1.98;0.60;;;;;;;;;;4921341;29;20035;-60
2022/07/02 04:08:40;;;;;;;3.15;0.70;;;;;;;;;;4924120;29;20035;-60
2022/07/02 04:11:06;;;;;;;3.10;0.90;;;;;;;;;;4925795;29;20024;-59
2022/07/02 04:13:32;;;;;;;2.83;0.70;;;;;;;;;;4926015;29;20024;-60
2022/07/02 04:15:59;;;;;;;1.38;0.70;;;;;;;;;;4925145;29;20032;-61
2022/07/02 04:18:25;;;;;;;3.05;0.77;;;;;;;;;;4921645;29;20027;-60
2022/07/02 04:20:52;;;;;;;0.90;0.88;;;;;;;;;;4932863;29;20393;-60
2022/07/02 04:23:18;;;;;;;3.83;0.90;;;;;;;;;;4925908;29;20036;-60
2022/07/02 04:25:44;;;;;;;0.52;0.50;;;;;;;;;;4925757;29;20031;-60
2022/07/02 04:28:12;;;;;;;3.08;0.88;;;;;;;;;;4925791;29;20023;-59
2022/07/02 04:30:38;;;;;;;1.20;0.73;;;;;;;;;;4922568;29;20022;-60
2022/07/02 04:33:04;;;;;;;2.88;0.60;;;;;;;;;;4920957;29;20034;-60
2022/07/02 04:35:31;;;;;;;4.55;0.93;;;;;;;;;;4924403;29;20038;-60
2022/07/02 04:37:57;;;;;;;2.60;0.70;;;;;;;;;;4928829;29;20031;-60
2022/07/02 04:40:24;;;;;;;1.92;0.57;;;;;;;;;;4931423;29;20032;-60
2022/07/02 04:42:50;;;;;;;2.40;0.60;;;;;;;;;;4924201;29;20023;-59
2022/07/02 04:45:16;;;;;;;1.25;0.70;;;;;;;;;;4920348;29;20027;-59
2022/07/02 04:47:43;;;;;;;2.28;0.70;;;;;;;;;;4922912;29;20055;-60
2022/07/02 04:50:09;;;;;;;2.17;0.80;;;;;;;;;;4925038;29;20030;-60
2022/07/02 04:52:35;;;;;;;3.28;0.82;;;;;;;;;;4925007;29;20024;-60
2022/07/02 04:55:02;;;;;;;2.47;0.90;;;;;;;;;;4924902;29;20500;-60
2022/07/02 04:57:28;;;;;;;4.07;0.90;;;;;;;;;;4920243;29;20062;-60
2022/07/02 04:59:54;;;;;;;1.17;0.80;;;;;;;;;;4920954;29;20024;-60
2022/07/02 05:02:21;;;;;;;2.88;1.30;;;;;;;;;;4924849;29;20477;-60
2022/07/02 05:04:47;;;;;;;1.77;0.98;;;;;;;;;;4924797;29;20051;-60
2022/07/02 05:07:13;;;;;;;3.83;0.93;;;;;;;;;;4924704;29;20478;-60
2022/07/02 05:09:40;;;;;;;2.53;0.80;;;;;;;;;;4922605;29;20043;-60
2022/07/02 05:12:06;;;;;;;1.40;0.80;;;;;;;;;;4920465;29;20024;-60
2022/07/02 05:14:33;;;;;;;3.28;0.80;;;;;;;;;;4923350;29;20024;-60
2022/07/02 05:16:59;;;;;;;3.13;1.00;;;;;;;;;;4928113;29;20106;-60
2022/07/02 05:19:25;;;;;;;3.17;0.90;;;;;;;;;;4931647;29;20016;-60
2022/07/02 05:21:52;;;;;;;1.38;0.90;;;;;;;;;;4923646;29;20034;-60
2022/07/02 05:24:18;;;;;;;1.55;0.80;;;;;;;;;;4919926;29;20024;-60
2022/07/02 05:26:45;;;;;;;1.58;0.65;;;;;;;;;;4921860;29;20036;-59
2022/07/02 05:29:11;;;;;;;1.80;0.90;;;;;;;;;;4924518;29;20016;-60
2022/07/02 05:31:37;;;;;;;1.52;0.70;;;;;;;;;;4924693;29;20032;-60
2022/07/02 05:34:04;;;;;;;2.80;0.88;;;;;;;;;;4924334;29;20027;-60
2022/07/02 05:36:30;;;;;;;1.30;0.73;;;;;;;;;;4920711;29;20036;-60
2022/07/02 05:38:56;;;;;;;0.93;0.77;;;;;;;;;;4920497;29;20491;-60
2022/07/02 05:41:23;;;;;;;1.42;0.77;;;;;;;;;;4930854;29;20035;-60
2022/07/02 05:43:49;;;;;;;1.52;0.88;;;;;;;;;;4929628;29;20380;-59
2022/07/02 05:46:15;;;;;;;1.80;0.70;;;;;;;;;;4932821;29;20062;-61
2022/07/02 05:48:42;;;;;;;2.92;0.70;;;;;;;;;;4922130;29;20023;-60
2022/07/02 05:51:08;;;;;;;2.53;0.70;;;;;;;;;;4919694;29;20050;-60
2022/07/02 05:53:34;;;;;;;1.75;0.70;;;;;;;;;;4922759;29;20032;-60
2022/07/02 05:56:00;;;;;;;1.52;0.88;;;;;;;;;;4927350;29;20030;-60
2022/07/02 05:58:27;;;;;;;2.97;0.85;;;;;;;;;;4930982;29;20433;-60
2022/07/02 06:00:53;;;;;;;1.50;0.70;;;;;;;;;;4923192;29;20038;-60
2022/07/02 06:03:20;;;;;;;1.10;0.75;;;;;;;;;;4919496;29;20394;-60
2022/07/02 06:08:31;;;;;;;2.90;0.80;;;;;;;;;;4922786;29;20031;-60
2022/07/02 06:10:58;;;;;;;1.27;0.65;;;;;;;;;;4923520;29;20500;-60
2022/07/02 06:13:24;;;;;;;1.38;0.63;;;;;;;;;;4923750;29;20032;-59
2022/07/02 06:15:50;;;;;;;4.00;0.63;;;;;;;;;;4922359;29;20042;-60
2022/07/02 06:18:17;;;;;;;3.78;0.80;;;;;;;;;;4919101;29;20114;-60
2022/07/02 06:20:43;;;;;;;1.45;0.65;;;;;;;;;;4921320;29;20032;-59
2022/07/02 06:23:09;;;;;;;1.42;0.80;;;;;;;;;;4924035;29;20406;-60
2022/07/02 06:25:36;;;;;;;2.25;0.75;;;;;;;;;;4923260;29;20046;-59
2022/07/02 06:28:02;;;;;;;1.80;0.70;;;;;;;;;;4923697;29;20019;-60
2022/07/02 06:30:29;;;;;;;1.58;0.80;;;;;;;;;;4919747;29;20440;-60
2022/07/02 06:32:55;;;;;;;2.95;0.82;;;;;;;;;;4919662;29;20031;-59
2022/07/02 06:35:22;;;;;;;4.18;0.93;;;;;;;;;;4930067;29;20028;-60
2022/07/02 06:37:49;;;;;;;0.73;0.68;;;;;;;;;;4927716;29;20396;-60
2022/07/02 06:40:15;;;;;;;2.92;0.90;;;;;;;;;;4923421;29;20027;-59
2022/07/02 06:42:41;;;;;;;2.15;0.70;;;;;;;;;;4921584;29;20377;-60
2022/07/02 06:45:08;;;;;;;5.13;0.90;;;;;;;;;;4919182;29;20040;-59
2022/07/02 06:47:39;;;;;;;1.27;0.70;;;;;;;;;;4922407;29;20035;-60
2022/07/02 06:50:06;;;;;;;;;;;;;;;;;;4923825;29;20046;-60
2022/07/02 06:52:32;;;;;;;1.00;0.73;;;;;;;;;;4923547;29;19911;-60
2022/07/02 06:54:59;;;;;;;1.67;0.70;;;;;;;;;;4923118;29;20477;-60
2022/07/02 06:57:25;;;;;;;5.45;0.60;;;;;;;;;;4919448;29;20038;-60
2022/07/02 06:59:52;;;;;;;1.88;0.70;;;;;;;;;;4930673;29;20476;-60
2022/07/02 07:02:18;;;;;;;1.75;0.70;;;;;;;;;;4928782;29;20054;-60
2022/07/02 07:04:45;;;;;;;2.03;0.70;;;;;;;;;;4927664;29;20083;-60
2022/07/02 07:07:11;;;;;;;0.95;0.73;;;;;;;;;;4923509;29;20020;-60
2022/07/02 07:09:38;;;;;;;2.13;0.90;;;;;;;;;;4920405;29;20030;-59
2022/07/02 07:12:05;;;;;;;2.45;0.60;;;;;;;;;;4919086;29;20032;-60
2022/07/02 07:14:32;;;;;;;2.88;0.80;;;;;;;;;;4930240;29;20366;-60
2022/07/02 07:16:58;;;;;;;2.88;0.73;;;;;;;;;;4925926;29;20062;-60
2022/07/02 07:19:25;;;;;;;1.70;0.80;;;;;;;;;;4923083;29;20088;-60
2022/07/02 07:21:51;;;;;;;2.13;0.77;;;;;;;;;;4925315;29;20082;-60
2022/07/02 07:24:18;;;;;;;1.48;0.70;;;;;;;;;;4921717;29;20028;-60
2022/07/02 07:26:44;;;;;;;0.95;0.70;;;;;;;;;;4923969;29;20452;-60
2022/07/02 07:29:11;;;;;;;1.02;0.50;;;;;;;;;;4920147;29;20020;-60
2022/07/02 07:31:37;;;;;;;0.77;0.60;;;;;;;;;;4926409;29;20485;-60
2022/07/02 07:34:04;;;;;;;1.42;0.73;;;;;;;;;;4926512;29;20435;-60
2022/07/02 07:36:30;;;;;;;1.35;0.70;;;;;;;;;;4922838;29;20504;-60
2022/07/02 07:38:57;;;;;;;3.10;0.75;;;;;;;;;;4921918;29;20444;-60
2022/07/02 07:41:24;;;;;;;3.47;0.77;;;;;;;;;;4926280;29;20033;-60
2022/07/02 07:43:53;;;;;;;3.10;1.10;;;;;;;;;;4926283;29;20031;-60
2022/07/02 07:46:20;;;;;;;1.80;0.70;;;;;;;;;;4922396;29;20027;-60
2022/07/02 07:48:47;;;;;;;2.33;0.93;;;;;;;;;;4936666;29;20035;-60
2022/07/02 07:51:14;;;;;;;2.70;0.80;;;;;;;;;;4922022;29;20032;-60
2022/07/02 07:53:41;;;;;;;4.80;0.80;;;;;;;;;;4933382;29;20148;-60
2022/07/02 07:56:07;;;;;;;2.33;0.80;;;;;;;;;;4927889;29;20032;-60
2022/07/02 07:58:34;;;;;;;1.98;0.77;;;;;;;;;;4926157;29;20028;-60
2022/07/02 08:01:01;;;;;;;1.55;0.80;;;;;;;;;;4926151;29;20030;-60
2022/07/02 08:03:27;;;;;;;1.30;0.60;;;;;;;;;;4922261;29;20481;-61
2022/07/02 08:05:54;;;;;;;1.20;0.80;;;;;;;;;;4922246;29;20028;-60
2022/07/02 08:08:21;;;;;;;1.65;1.00;;;;;;;;;;4925647;29;20044;-60
2022/07/02 08:10:47;;;;;;;1.73;0.70;;;;;;;;;;4925882;29;20083;-60
2022/07/02 08:13:13;;;;;;;1.17;0.70;;;;;;;;;;4921354;29;20040;-60
2022/07/02 08:15:40;;;;;;;1.17;0.90;;;;;;;;;;4934815;29;20030;-60
2022/07/02 08:18:08;;;;;;;2.55;0.80;;;;;;;;;;4934425;29;20047;-61
2022/07/02 08:20:34;;;;;;;3.60;0.80;;;;;;;;;;4924502;29;20028;-61
2022/07/02 08:23:01;;;;;;;1.55;0.80;;;;;;;;;;4925464;29;20490;-60
2022/07/02 08:25:27;;;;;;;1.67;0.82;;;;;;;;;;4925634;29;20032;-60
2022/07/02 08:27:53;;;;;;;2.08;1.85;;;;;;;;;;4925393;29;20020;-61
2022/07/02 08:30:20;;;;;;;1.52;0.70;;;;;;;;;;4921087;29;20477;-61
2022/07/02 08:32:46;;;;;;;1.83;0.82;;;;;;;;;;4931632;29;20023;-61
2022/07/02 08:35:13;;;;;;;1.60;0.98;;;;;;;;;;4926482;29;20024;-61
2022/07/02 08:37:39;;;;;;;1.80;0.98;;;;;;;;;;4925295;29;20036;-61
2022/07/02 08:40:06;;;;;;;1.40;0.90;;;;;;;;;;4925654;29;20028;-61
2022/07/02 08:42:32;;;;;;;2.15;0.82;;;;;;;;;;4919668;29;20496;-60
2022/07/02 08:45:00;;;;;;;1.40;0.90;;;;;;;;;;4920732;29;20430;-58
2022/07/02 08:47:27;;;;;;;1.40;1.00;;;;;;;;;;4924701;29;20078;-58
2022/07/02 08:49:54;;;;;;;1.02;0.90;;;;;;;;;;4924820;29;20093;-58
2022/07/02 08:52:21;;;;;;;1.45;1.00;;;;;;;;;;4925375;29;20034;-58
2022/07/02 08:54:48;;;;;;;1.20;0.82;;;;;;;;;;4923616;29;20397;-59
2022/07/02 08:57:15;;;;;;;2.55;0.90;;;;;;;;;;4920311;29;20478;-59
2022/07/02 08:59:41;;;;;;;2.03;0.90;;;;;;;;;;4922841;29;20040;-58
2022/07/02 09:02:08;;;;;;;1.63;0.82;;;;;;;;;;4924856;29;20030;-59
2022/07/02 09:04:35;;;;;;;4.28;1.00;;;;;;;;;;4924514;29;20030;-59
2022/07/02 09:07:02;;;;;;;0.85;0.85;;;;;;;;;;4925182;29;20039;-58
2022/07/02 09:09:29;;;;;;;2.28;1.00;;;;;;;;;;4920945;29;20029;-58
2022/07/02 09:11:57;;;;;;;1.10;0.90;;;;;;;;;;4932559;29;20020;-58
2022/07/02 09:14:24;;;;;;;1.42;1.10;;;;;;;;;;4924577;29;20497;-59
2022/07/02 09:16:50;;;;;;;1.65;1.08;;;;;;;;;;4924411;29;20047;-59
2022/07/02 09:19:17;;;;;;;4.55;0.90;;;;;;;;;;4924340;29;20024;-59
2022/07/02 09:21:48;;;;;;;2.67;1.00;;;;;;;;;;4922829;29;20411;-58
2022/07/02 09:24:15;;;;;;;1.20;0.98;;;;;;;;;;4920206;29;20496;-59
2022/07/02 09:26:41;;;;;;;2.75;1.17;;;;;;;;;;4922323;29;20026;-58
2022/07/02 09:29:08;;;;;;;2.90;1.20;;;;;;;;;;4924824;29;20038;-59
2022/07/02 09:31:47;;;;;;;2.22;1.23;;;;;;;;;;4924503;29;20032;-59
2022/07/02 09:34:23;;;;;;;2.03;1.15;;;;;;;;;;4923833;29;20026;-59
2022/07/02 09:36:50;;;;;;;2.50;1.13;;;;;;;;;;4923279;29;20424;-59
2022/07/02 09:39:26;;;;;;;2.38;1.15;;;;;;;;;;4919944;29;20386;-59
2022/07/02 09:41:52;;;;;;;1.95;1.10;;;;;;;;;;4931991;29;20038;-58
2022/07/02 09:44:18;;;;;;;4.47;1.20;;;;;;;;;;4924123;29;20400;-58
2022/07/02 09:46:45;;;;;;;1.92;1.10;;;;;;;;;;4924508;29;20031;-59
2022/07/02 09:49:12;;;;;;;1.63;1.20;;;;;;;;;;4921594;29;20024;-58
2022/07/02 09:51:52;;;;;;;1.83;1.10;;;;;;;;;;4935448;29;20032;-59
2022/07/02 09:54:22;;;;;;;1.33;1.10;;;;;;;;;;4919820;29;20038;-59
2022/07/02 09:56:52;;;;;;;2.53;1.50;;;;;;;;;;4921000;29;20044;-58
2022/07/02 09:59:18;;;;;;;2.00;1.27;;;;;;;;;;4924031;29;20024;-59
2022/07/02 10:01:45;;;;;;;1.10;1.08;;;;;;;;;;4924265;29;20040;-59
2022/07/02 10:04:13;;;;;;;2.15;1.30;;;;;;;;;;4923788;29;20026;-59
2022/07/02 10:06:39;;;;;;;3.40;1.10;;;;;;;;;;4921411;29;20503;-59
2022/07/02 10:09:07;;;;;;;1.77;1.23;;;;;;;;;;4919580;29;20028;-59
2022/07/02 10:11:33;;;;;;;4.25;1.30;;;;;;;;;;4922793;29;20024;-59
2022/07/02 10:14:00;;;;;;;3.08;1.20;;;;;;;;;;4924146;29;20028;-59
2022/07/02 10:16:27;;;;;;;1.30;1.20;;;;;;;;;;4923774;29;20040;-58
2022/07/02 10:18:54;;;;;;;1.25;1.10;;;;;;;;;;4923208;29;20053;-59
2022/07/02 10:21:21;;;;;;;1.10;1.10;;;;;;;;;;4919376;29;20266;-59
2022/07/02 10:23:48;;;;;;;0.90;0.90;;;;;;;;;;4921063;29;20488;-58
2022/07/02 10:26:15;;;;;;;1.17;1.10;;;;;;;;;;4923659;29;20066;-59
2022/07/02 10:28:41;;;;;;;0.90;0.90;;;;;;;;;;4925389;29;20034;-59
2022/07/02 10:31:10;;;;;;;2.22;0.98;;;;;;;;;;4933420;29;20038;-59
2022/07/02 10:33:39;;;;;;;1.02;1.00;;;;;;;;;;4920494;29;20492;-59
2022/07/02 10:36:07;;;;;;;1.13;1.02;;;;;;;;;;4919462;29;20379;-59
2022/07/02 10:38:35;;;;;;;1.20;1.10;;;;;;;;;;4922789;29;20043;-59
2022/07/02 10:41:01;;;;;;;1.08;1.08;;;;;;;;;;4923707;29;20031;-59
2022/07/02 10:43:29;;;;;;;2.30;0.90;;;;;;;;;;4920832;29;20027;-59
2022/07/02 10:46:09;;;;;;;1.00;0.98;;;;;;;;;;4930449;29;20027;-59
2022/07/02 10:48:36;;;;;;;2.30;0.93;;;;;;;;;;4919426;29;20400;-59
2022/07/02 10:51:06;;;;;;;1.27;1.17;;;;;;;;;;4930898;29;20036;-58
2022/07/02 10:53:34;;;;;;;2.50;1.10;;;;;;;;;;4922343;29;20032;-59
2022/07/02 10:56:04;;;;;;;1.40;1.30;;;;;;;;;;4926876;29;20034;-59
2022/07/02 10:58:31;;;;;;;1.00;1.00;;;;;;;;;;4932490;29;20575;-58
2022/07/02 11:01:08;;;;;;;1.50;1.40;;;;;;;;;;4938128;29;20074;-58
2022/07/02 11:03:34;;;;;;;1.48;0.98;;;;;;;;;;4924385;29;20050;-59
2022/07/02 11:06:15;;;;;;;2.65;2.45;;;;;;;;;;4922824;29;20490;-59
2022/07/02 11:08:48;;;;;;;0.95;0.95;;;;;;;;;;4932853;29;20042;-59
2022/07/02 11:11:36;;;;;;;1.13;1.02;;;;;;;;;;4927891;29;20026;-59
2022/07/02 11:14:04;;;;;;;1.92;1.50;;;;;;;;;;4927239;29;20032;-59
2022/07/02 11:16:42;;;;;;;0.80;0.80;;;;;;;;;;4926814;29;20054;-59
2022/07/02 11:19:14;;;;;;;1.25;1.00;;;;;;;;;;4921576;29;20401;-59
2022/07/02 11:21:41;;;;;;;1.65;1.50;;;;;;;;;;4935785;29;20526;-59
2022/07/02 11:24:10;;;;;;;1.60;1.50;;;;;;;;;;4935877;29;20035;-59
2022/07/02 11:26:40;;;;;;;1.30;1.20;;;;;;;;;;4925417;29;20177;-59
2022/07/02 11:29:06;;;;;;;2.50;1.00;;;;;;;;;;4926712;29;20473;-59
2022/07/02 11:31:36;;;;;;;1.10;1.10;;;;;;;;;;4926257;29;20035;-59
2022/07/02 11:34:03;;;;;;;2.65;1.23;;;;;;;;;;4926451;29;20038;-59
2022/07/02 11:36:29;;;;;;;1.17;1.10;;;;;;;;;;4922720;29;20090;-59
2022/07/02 11:38:56;;;;;;;1.13;1.13;;;;;;;;;;4921630;29;20049;-59
2022/07/02 11:41:23;;;;;;;1.27;1.17;;;;;;;;;;4926207;29;20102;-59
2022/07/02 11:43:51;;;;;;;1.08;1.08;;;;;;;;;;4925971;29;20511;-59
2022/07/02 11:46:19;;;;;;;1.00;1.00;;;;;;;;;;4924579;29;20499;-59
2022/07/02 11:48:46;;;;;;;0.90;0.90;;;;;;;;;;4937155;29;20499;-59
2022/07/02 11:51:13;;;;;;;1.58;1.00;;;;;;;;;;4921896;29;20493;-59
2022/07/02 11:53:39;;;;;;;0.90;0.90;;;;;;;;;;4924539;29;20402;-58
2022/07/02 11:56:05;;;;;;;1.88;1.10;;;;;;;;;;4926098;29;20024;-59
2022/07/02 11:58:39;;;;;;;1.08;1.00;;;;;;;;;;4923416;29;20396;-59
2022/07/02 12:01:06;;;;;;;1.00;1.00;;;;;;;;;;4932659;29;20016;-59
2022/07/02 12:03:32;;;;;;;0.90;0.90;;;;;;;;;;4936666;29;20032;-59
2022/07/02 12:05:59;;;;;;;0.93;0.88;;;;;;;;;;4921748;29;20149;-59
2022/07/02 12:08:26;;;;;;;0.90;0.90;;;;;;;;;;4925325;29;20028;-58
2022/07/02 12:10:52;;;;;;;1.33;0.80;;;;;;;;;;4925872;29;20039;-59
2022/07/02 12:13:18;;;;;;;0.95;0.95;;;;;;;;;;4925610;29;20031;-58
2022/07/02 12:15:46;;;;;;;0.80;0.80;;;;;;;;;;4924116;29;20023;-59
2022/07/02 12:18:20;;;;;;;0.90;0.90;;;;;;;;;;4921216;29;20048;-59
2022/07/02 12:20:46;;;;;;;0.73;0.73;;;;;;;;;;4922898;29;20031;-58
2022/07/02 12:23:13;;;;;;;1.27;0.70;;;;;;;;;;4925987;29;20024;-58
2022/07/02 12:25:47;;;;;;;0.60;0.60;;;;;;;;;;4926779;29;20511;-58
2022/07/02 12:31:00;;;;;;;1.33;0.75;;;;;;;;;;4925727;29;20024;-58
2022/07/02 12:33:31;;;;;;;2.30;0.73;;;;;;;;;;4921591;29;20046;-60
2022/07/02 12:36:04;;;;;;;0.85;0.70;;;;;;;;;;4933407;29;20027;-61
2022/07/02 12:38:42;;;;;;;0.70;0.63;;;;;;;;;;4924728;29;20438;-62
2022/07/02 12:41:08;;;;;;;2.75;0.77;;;;;;;;;;4925553;29;20024;-61
2022/07/02 12:43:35;;;;;;;0.85;0.57;;;;;;;;;;4924964;29;20083;-61
2022/07/02 12:46:05;;;;;;;0.75;0.68;;;;;;;;;;4925737;29;20074;-62
2022/07/02 12:48:31;;;;;;;0.70;0.70;;;;;;;;;;4921745;29;20404;-61
2022/07/02 12:50:59;;;;;;;0.93;0.65;;;;;;;;;;4921066;29;20021;-60
2022/07/02 12:53:28;;;;;;;0.82;0.65;;;;;;;;;;4925022;29;20379;-61
2022/07/02 12:56:00;;;;;;;0.50;0.50;;;;;;;;;;4925292;29;20050;-61
2022/07/02 12:58:27;;;;;;;0.80;0.57;;;;;;;;;;4924767;29;20039;-61
2022/07/02 13:00:53;;;;;;;0.80;0.70;;;;;;;;;;4924310;29;20392;-61
2022/07/02 13:03:21;;;;;;;0.60;0.60;;;;;;;;;;4920696;29;20040;-60
2022/07/02 13:05:51;;;;;;;0.50;0.43;;;;;;;;;;4932178;29;20041;-60
2022/07/02 13:08:17;;;;;;;0.98;0.52;;;;;;;;;;4925454;29;20485;-60
2022/07/02 13:10:48;;;;;;;0.50;0.50;;;;;;;;;;4924608;29;20481;-59
2022/07/02 13:13:15;;;;;;;0.55;0.40;;;;;;;;;;4924771;29;20478;-60
2022/07/02 13:15:41;;;;;;;2.30;0.40;;;;;;;;;;4922850;29;20020;-60
2022/07/02 13:18:07;;;;;;;0.80;0.60;;;;;;;;;;4919591;29;20052;-60
2022/07/02 13:20:34;;;;;;;1.05;0.60;;;;;;;;;;4923493;29;20024;-60
2022/07/02 13:23:00;;;;;;;0.50;0.50;;;;;;;;;;4924462;29;20396;-60
2022/07/02 13:25:27;;;;;;;1.20;0.60;;;;;;;;;;4924224;29;20030;-60
2022/07/02 13:27:53;;;;;;;0.43;0.43;;;;;;;;;;4923765;29;20481;-60
2022/07/02 13:30:21;;;;;;;1.30;0.50;;;;;;;;;;4920040;29;20028;-61
2022/07/02 13:32:48;;;;;;;0.93;0.50;;;;;;;;;;4921787;29;20027;-60
2022/07/02 13:35:14;;;;;;;1.15;0.57;;;;;;;;;;4924372;29;20024;-60
2022/07/02 13:37:42;;;;;;;1.27;0.47;;;;;;;;;;4924305;29;20047;-60
2022/07/02 13:40:10;;;;;;;0.77;0.40;;;;;;;;;;4924151;29;20024;-60
2022/07/02 13:42:36;;;;;;;0.75;0.43;;;;;;;;;;4920191;29;20016;-60
2022/07/02 13:45:04;;;;;;;2.65;0.40;;;;;;;;;;4932674;29;20034;-60
2022/07/02 13:47:30;;;;;;;0.90;0.50;;;;;;;;;;4930500;29;20039;-60
2022/07/02 13:49:57;;;;;;;0.50;0.50;;;;;;;;;;4927661;29;20026;-60
2022/07/02 13:52:23;;;;;;;2.38;0.50;;;;;;;;;;4924007;29;20051;-60
2022/07/02 13:54:50;;;;;;;1.05;0.60;;;;;;;;;;4922431;29;20024;-60
2022/07/02 13:57:17;;;;;;;1.42;0.55;;;;;;;;;;4919474;29;20054;-60
2022/07/02 13:59:44;;;;;;;0.93;0.50;;;;;;;;;;4922102;29;20036;-60
2022/07/02 14:02:11;;;;;;;2.58;0.50;;;;;;;;;;4926518;29;20030;-60
2022/07/02 14:04:37;;;;;;;2.35;0.60;;;;;;;;;;4930672;29;20020;-60
2022/07/02 14:07:04;;;;;;;1.90;0.60;;;;;;;;;;4934088;29;20053;-60
2022/07/02 14:09:35;;;;;;;1.10;0.50;;;;;;;;;;4919695;29;20493;-60
2022/07/02 14:12:08;;;;;;;0.40;0.40;;;;;;;;;;4919722;29;20066;-61
2022/07/02 14:14:35;;;;;;;1.13;0.50;;;;;;;;;;4930496;29;20377;-60
2022/07/02 14:17:02;;;;;;;0.47;0.47;;;;;;;;;;4926232;29;20062;-60
2022/07/02 14:19:28;;;;;;;1.35;0.45;;;;;;;;;;4923707;29;20500;-60
2022/07/02 14:21:54;;;;;;;4.22;0.70;;;;;;;;;;4916360;29;20024;-60
2022/07/02 14:24:22;;;;;;;1.70;0.52;;;;;;;;;;4918620;29;20063;-60
2022/07/02 14:26:48;;;;;;;0.70;0.60;;;;;;;;;;4930777;29;20042;-60
2022/07/02 14:29:15;;;;;;;0.65;0.60;;;;;;;;;;4923664;29;20036;-60
2022/07/02 14:31:41;;;;;;;0.57;0.57;;;;;;;;;;4927720;29;20038;-60
2022/07/02 14:34:08;;;;;;;4.53;0.55;;;;;;;;;;4927796;29;20016;-60
2022/07/02 14:36:34;;;;;;;2.10;0.60;;;;;;;;;;4924144;29;20396;-60
2022/07/02 14:39:00;;;;;;;1.10;0.50;;;;;;;;;;4923166;29;20039;-60
2022/07/02 14:41:33;;;;;;;1.30;0.60;;;;;;;;;;4927513;29;20060;-60
2022/07/02 14:44:00;;;;;;;1.48;0.40;;;;;;;;;;4927459;29;20030;-60
2022/07/02 14:46:30;;;;;;;1.80;0.63;;;;;;;;;;4927560;29;20548;-60
2022/07/02 14:48:57;;;;;;;0.50;0.50;;;;;;;;;;4927094;29;20023;-60